Time;durP1;ratioP1;P1;durP2;ratioP2;P2;SDS_P1;SDS_P2;PMS_P1;PMS_P2;Temp;Humidity;BMP_temperature;BMP_pressure;BME280_temperature;BME280_humidity;BME280_pressure;Samples;Min_cycle;Max_cycle;Signal;HPM_P1;HPM_P2
2023/05/30 00:00:31;;;;;;;8.85;7.93;;;;;;;12.76;100.00;96165.09;5127894;27;20102;-66
2023/05/30 00:02:57;;;;;;;9.18;8.38;;;;;;;12.79;100.00;96161.31;5119567;27;20866;-67
2023/05/30 00:05:22;;;;;;;10.50;7.85;;;;;;;12.71;100.00;96164.66;5120793;27;20019;-68
2023/05/30 00:07:48;;;;;;;8.45;7.68;;;;;;;12.68;100.00;96175.53;5136548;27;20152;-68
2023/05/30 00:10:13;;;;;;;8.82;7.85;;;;;;;12.69;100.00;96172.75;5124887;27;20035;-68
2023/05/30 00:12:41;;;;;;;9.45;8.45;;;;;;;12.73;100.00;96176.75;5143167;27;20497;-68
2023/05/30 00:15:07;;;;;;;9.93;8.48;;;;;;;12.76;100.00;96183.59;5127679;27;20472;-68
2023/05/30 00:17:35;;;;;;;9.48;8.55;;;;;;;12.74;100.00;96182.91;5118061;27;20159;-68
2023/05/30 00:20:04;;;;;;;9.48;8.48;;;;;;;12.68;100.00;96171.09;5130513;27;20037;-67
2023/05/30 00:22:29;;;;;;;9.02;8.15;;;;;;;12.70;100.00;96181.50;5128591;27;20483;-68
2023/05/30 00:24:59;;;;;;;9.55;8.43;;;;;;;12.61;100.00;96181.38;5124857;27;20042;-68
2023/05/30 00:27:25;;;;;;;9.38;8.52;;;;;;;12.60;100.00;96184.19;5128913;27;20024;-68
2023/05/30 00:29:50;;;;;;;8.93;8.13;;;;;;;12.61;100.00;96177.94;5118130;27;20038;-68
2023/05/30 00:32:16;;;;;;;9.52;7.55;;;;;;;12.61;100.00;96173.47;5127148;27;20027;-68
2023/05/30 00:34:41;;;;;;;8.45;7.75;;;;;;;12.64;100.00;96175.00;5122714;27;20130;-68
2023/05/30 00:37:08;;;;;;;9.25;8.45;;;;;;;12.63;100.00;96178.63;5125815;27;20414;-68
2023/05/30 00:39:34;;;;;;;10.15;8.35;;;;;;;12.59;100.00;96183.34;5136856;27;20035;-68
2023/05/30 00:42:00;;;;;;;9.48;8.48;;;;;;;12.52;100.00;96182.25;5129372;27;20029;-68
2023/05/30 00:44:26;;;;;;;8.95;8.23;;;;;;;12.44;100.00;96185.59;5120357;27;20102;-68
2023/05/30 00:46:52;;;;;;;8.80;8.00;;;;;;;12.37;100.00;96188.94;5131895;27;20132;-68
2023/05/30 00:49:18;;;;;;;8.15;7.55;;;;;;;12.36;100.00;96187.28;5127827;27;20107;-67
2023/05/30 00:51:44;;;;;;;9.43;8.55;;;;;;;12.43;100.00;96189.22;5117451;27;20026;-68
2023/05/30 00:54:09;;;;;;;11.20;7.55;;;;;;;12.38;100.00;96187.97;5130663;27;20403;-68
2023/05/30 00:56:35;;;;;;;8.43;7.70;;;;;;;12.32;100.00;96187.56;5115027;28;20024;-68
2023/05/30 00:59:02;;;;;;;9.00;8.13;;;;;;;12.30;100.00;96189.50;5127625;27;20080;-68
2023/05/30 01:01:29;;;;;;;10.77;8.25;;;;;;;12.24;100.00;96200.59;5128803;27;20147;-68
2023/05/30 01:03:55;;;;;;;9.18;8.23;;;;;;;12.21;100.00;96203.53;5123599;27;20011;-68
2023/05/30 01:06:21;;;;;;;9.88;8.70;;;;;;;12.20;100.00;96199.22;5117568;27;20035;-68
2023/05/30 01:08:51;;;;;;;14.15;8.07;;;;;;;12.16;100.00;96200.47;5119295;27;20063;-68
2023/05/30 01:11:32;;;;;;;8.40;7.70;;;;;;;12.07;100.00;96196.88;5120198;27;20055;-68
2023/05/30 01:14:24;;;;;;;10.93;8.80;;;;;;;12.00;100.00;96191.28;5125418;27;20049;-67
2023/05/30 01:16:58;;;;;;;9.77;8.85;;;;;;;12.08;100.00;96190.63;5117100;28;20441;-68
2023/05/30 01:19:26;;;;;;;8.85;8.13;;;;;;;12.09;100.00;96189.63;5126913;27;20067;-68
2023/05/30 01:22:29;;;;;;;9.80;8.68;;;;;;;12.08;100.00;96192.44;5126693;27;20106;-68
2023/05/30 01:25:36;;;;;;;9.05;8.15;;;;;;;12.04;100.00;96186.59;5122697;27;20031;-68
2023/05/30 01:28:10;;;;;;;8.73;7.95;;;;;;;12.18;100.00;96203.81;5082409;27;20036;-68
2023/05/30 01:30:38;;;;;;;11.95;8.57;;;;;;;12.22;100.00;96188.53;5109608;27;20030;-67
2023/05/30 01:33:07;;;;;;;8.43;7.63;;;;;;;12.17;100.00;96178.38;5130233;27;20480;-67
2023/05/30 01:35:32;;;;;;;9.30;8.45;;;;;;;12.10;100.00;96193.94;5126714;27;20027;-68
2023/05/30 01:37:58;;;;;;;12.55;8.73;;;;;;;12.02;100.00;96192.00;5119303;27;20417;-68
2023/05/30 01:40:26;;;;;;;11.10;10.00;;;;;;;12.00;100.00;96183.34;5136184;27;20034;-68
2023/05/30 01:42:58;;;;;;;10.07;9.20;;;;;;;11.99;100.00;96188.78;5123981;27;20018;-68
2023/05/30 01:45:35;;;;;;;9.63;8.73;;;;;;;12.01;100.00;96185.06;5134715;27;20893;-68
2023/05/30 01:48:15;;;;;;;9.82;9.02;;;;;;;12.04;100.00;96174.22;5126300;27;20023;-68
2023/05/30 01:50:48;;;;;;;10.98;9.10;;;;;;;12.04;100.00;96184.78;5135886;27;20019;-67
2023/05/30 01:53:22;;;;;;;10.32;9.38;;;;;;;11.98;100.00;96187.94;5123211;27;20023;-68
2023/05/30 01:55:53;;;;;;;9.15;8.25;;;;;;;11.88;100.00;96184.47;5135159;27;20027;-68
2023/05/30 01:58:20;;;;;;;9.20;8.15;;;;;;;11.83;100.00;96191.97;5121259;27;20023;-68
2023/05/30 02:00:47;;;;;;;9.00;8.10;;;;;;;11.81;100.00;96191.25;5117419;27;20716;-68
2023/05/30 02:03:12;;;;;;;11.10;10.10;;;;;;;11.77;100.00;96187.22;5129878;27;20033;-68
2023/05/30 02:05:38;;;;;;;10.85;9.48;;;;;;;11.93;100.00;96191.97;5137371;27;20054;-68
2023/05/30 02:08:03;;;;;;;9.57;8.65;;;;;;;11.84;100.00;96202.38;5127463;27;20027;-68
2023/05/30 02:10:29;;;;;;;9.52;8.73;;;;;;;11.68;100.00;96199.44;5128528;27;20027;-68
2023/05/30 02:12:54;;;;;;;9.80;8.85;;;;;;;11.59;100.00;96196.66;5130252;27;20027;-68
2023/05/30 02:15:20;;;;;;;9.27;8.48;;;;;;;11.59;100.00;96203.72;5126026;27;20031;-68
2023/05/30 02:17:45;;;;;;;10.73;8.05;;;;;;;11.55;100.00;96203.19;5127610;27;20391;-68
2023/05/30 02:20:11;;;;;;;9.88;8.68;;;;;;;11.58;100.00;96205.53;5125652;27;20023;-68
2023/05/30 02:22:36;;;;;;;9.93;8.93;;;;;;;11.60;100.00;96202.75;5117461;27;20015;-68
2023/05/30 02:25:02;;;;;;;11.02;8.82;;;;;;;11.63;100.00;96204.28;5114714;27;20098;-68
2023/05/30 02:27:27;;;;;;;11.55;9.20;;;;;;;11.58;100.00;96204.69;5126995;27;20026;-69
2023/05/30 02:29:53;;;;;;;11.02;8.85;;;;;;;11.57;100.00;96203.88;5122297;27;20042;-68
2023/05/30 02:32:18;;;;;;;10.00;8.70;;;;;;;11.64;100.00;96212.09;5127487;27;20024;-68
2023/05/30 02:34:44;;;;;;;12.40;9.95;;;;;;;11.67;100.00;96201.25;5114921;27;20045;-68
2023/05/30 02:37:09;;;;;;;10.43;9.40;;;;;;;11.64;100.00;96209.44;5118479;27;20398;-68
2023/05/30 02:39:35;;;;;;;11.90;10.45;;;;;;;11.64;100.00;96204.16;5116999;27;20019;-68
2023/05/30 02:42:01;;;;;;;10.05;9.15;;;;;;;11.59;100.00;96201.94;5129555;27;20573;-68
2023/05/30 02:44:26;;;;;;;12.13;10.02;;;;;;;11.55;100.00;96192.63;5130528;27;20034;-68
2023/05/30 02:46:52;;;;;;;11.50;9.35;;;;;;;11.56;100.00;96201.34;5124159;27;20123;-68
2023/05/30 02:49:18;;;;;;;11.95;9.80;;;;;;;11.53;100.00;96191.94;5126391;27;20015;-68
2023/05/30 02:51:44;;;;;;;11.85;10.63;;;;;;;11.55;100.00;96199.69;5129742;27;20114;-68
2023/05/30 02:54:09;;;;;;;9.93;9.13;;;;;;;11.57;100.00;96193.31;5134443;27;20490;-68
2023/05/30 02:56:35;;;;;;;14.20;9.85;;;;;;;11.58;100.00;96189.72;5117010;27;20502;-68
2023/05/30 02:59:01;;;;;;;10.38;9.48;;;;;;;11.57;100.00;96187.19;5115489;28;20044;-68
2023/05/30 03:01:26;;;;;;;12.30;9.65;;;;;;;11.58;100.00;96189.72;5120860;28;20102;-68
2023/05/30 03:03:51;;;;;;;9.77;8.98;;;;;;;11.60;100.00;96200.97;5121834;28;20565;-68
2023/05/30 03:06:18;;;;;;;10.20;9.20;;;;;;;11.59;100.00;96194.03;5117266;27;20019;-69
2023/05/30 03:08:44;;;;;;;10.93;9.82;;;;;;;11.57;100.00;96197.75;5120533;28;20027;-68
2023/05/30 03:11:11;;;;;;;10.40;9.50;;;;;;;11.54;100.00;96203.28;5124477;27;20348;-68
2023/05/30 03:13:36;;;;;;;10.18;9.27;;;;;;;11.54;100.00;96203.28;5120902;28;20106;-68
2023/05/30 03:16:02;;;;;;;11.38;9.25;;;;;;;11.52;100.00;96202.59;5119470;28;20031;-69
2023/05/30 03:18:28;;;;;;;12.23;10.02;;;;;;;11.55;100.00;96210.25;5115481;28;20048;-68
2023/05/30 03:20:54;;;;;;;14.02;11.15;;;;;;;11.55;100.00;96205.81;5115188;28;20392;-68
2023/05/30 03:23:19;;;;;;;12.32;11.25;;;;;;;11.56;100.00;96214.53;5127366;28;20016;-69
2023/05/30 03:25:45;;;;;;;12.35;11.13;;;;;;;11.57;100.00;96218.84;5115053;28;20016;-68
2023/05/30 03:28:10;;;;;;;12.20;10.82;;;;;;;11.58;100.00;96209.97;5128684;28;20026;-68
2023/05/30 03:30:36;;;;;;;11.10;10.18;;;;;;;11.57;100.00;96208.28;5117811;28;20064;-68
2023/05/30 03:33:02;;;;;;;12.82;10.80;;;;;;;11.63;100.00;96205.13;5125578;27;20019;-68
2023/05/30 03:35:27;;;;;;;12.60;11.40;;;;;;;11.61;100.00;96205.25;5119340;27;20020;-68
2023/05/30 03:37:53;;;;;;;12.30;11.18;;;;;;;11.59;100.00;96204.56;5118337;27;20178;-68
2023/05/30 03:40:18;;;;;;;14.68;11.10;;;;;;;11.56;100.00;96201.34;5131209;27;20094;-68
2023/05/30 03:42:44;;;;;;;11.68;10.68;;;;;;;11.49;100.00;96198.41;5122646;27;20017;-68
2023/05/30 03:45:10;;;;;;;11.90;10.38;;;;;;;11.46;100.00;96193.41;5120004;27;20054;-67
2023/05/30 03:47:36;;;;;;;13.23;11.45;;;;;;;11.44;100.00;96193.56;5128165;27;20043;-68
2023/05/30 03:50:02;;;;;;;11.27;10.18;;;;;;;11.37;100.00;96202.97;5130613;27;20019;-68
2023/05/30 03:52:28;;;;;;;12.57;10.80;;;;;;;11.35;100.00;96193.53;5135832;27;20446;-68
2023/05/30 03:54:53;;;;;;;11.65;10.00;;;;;;;11.32;100.00;96202.53;5127386;27;20084;-68
2023/05/30 03:57:19;;;;;;;12.63;10.55;;;;;;;11.35;100.00;96204.09;5118163;27;20118;-68
2023/05/30 03:59:46;;;;;;;12.10;11.00;;;;;;;11.39;100.00;96201.06;5136930;27;20098;-68
2023/05/30 04:02:11;;;;;;;10.70;9.73;;;;;;;11.29;100.00;96208.09;5129248;27;20696;-69
2023/05/30 04:04:37;;;;;;;11.15;10.23;;;;;;;11.28;100.00;96206.41;5117055;27;20027;-68
2023/05/30 04:07:03;;;;;;;11.13;10.07;;;;;;;11.29;100.00;96206.31;5127183;27;20035;-68
2023/05/30 04:09:28;;;;;;;12.10;10.60;;;;;;;11.29;100.00;96216.00;5120446;27;20028;-68
2023/05/30 04:11:54;;;;;;;13.18;11.88;;;;;;;11.29;100.00;96213.34;5122640;27;20100;-68
2023/05/30 04:14:19;;;;;;;12.10;10.82;;;;;;;11.28;100.00;96214.34;5125088;27;20031;-68
2023/05/30 04:16:44;;;;;;;12.27;11.07;;;;;;;11.25;100.00;96209.31;5121458;27;20031;-68
2023/05/30 04:19:10;;;;;;;12.82;9.88;;;;;;;11.30;100.00;96207.13;5123480;27;20091;-68
2023/05/30 04:21:36;;;;;;;12.30;10.82;;;;;;;11.36;100.00;96211.84;5104528;27;20277;-68
2023/05/30 04:24:01;;;;;;;11.35;10.25;;;;;;;11.35;100.00;96218.09;5123587;27;20027;-68
2023/05/30 04:26:27;;;;;;;11.50;10.40;;;;;;;11.33;100.00;96206.84;5121480;27;20099;-68
2023/05/30 04:28:58;;;;;;;11.40;10.27;;;;;;;11.34;100.00;96221.69;5134872;27;20085;-68
2023/05/30 04:31:24;;;;;;;11.63;10.55;;;;;;;11.39;100.00;96218.66;5133955;27;20027;-68
2023/05/30 04:33:54;;;;;;;13.07;11.77;;;;;;;11.45;100.00;96220.75;5116696;27;20015;-68
2023/05/30 04:36:19;;;;;;;13.57;12.25;;;;;;;11.43;100.00;96213.00;5122725;27;20023;-68
2023/05/30 04:38:49;;;;;;;13.07;11.75;;;;;;;11.38;100.00;96215.19;5137741;27;20029;-69
2023/05/30 04:41:24;;;;;;;13.18;10.95;;;;;;;11.36;100.00;96222.38;5130010;27;20019;-69
2023/05/30 04:44:09;;;;;;;14.80;13.07;;;;;;;11.37;100.00;96218.78;5130812;27;20080;-69
2023/05/30 04:46:35;;;;;;;14.05;12.15;;;;;;;11.40;100.00;96229.09;5125336;27;20047;-69
2023/05/30 04:49:01;;;;;;;13.38;12.10;;;;;;;11.43;100.00;96234.09;5124847;27;20031;-69
2023/05/30 04:51:27;;;;;;;14.25;12.85;;;;;;;11.46;100.00;96240.88;5116394;27;20026;-69
2023/05/30 04:53:53;;;;;;;15.23;12.57;;;;;;;11.42;100.00;96236.84;5122217;27;20028;-68
2023/05/30 04:56:20;;;;;;;14.88;12.57;;;;;;;11.44;100.00;96248.09;5122864;27;20030;-69
2023/05/30 04:58:48;;;;;;;15.10;13.18;;;;;;;11.48;100.00;96243.41;5121212;27;20151;-69
2023/05/30 05:01:13;;;;;;;18.13;12.90;;;;;;;11.48;100.00;96243.41;5104677;28;20019;-69
2023/05/30 05:03:40;;;;;;;16.10;13.95;;;;;;;11.51;100.00;96240.50;5125815;27;20038;-66
2023/05/30 05:06:07;;;;;;;13.00;11.80;;;;;;;11.54;100.00;96242.84;5123273;27;20086;-67
2023/05/30 05:08:33;;;;;;;12.88;11.68;;;;;;;11.60;100.00;96240.50;5119409;27;20023;-67
2023/05/30 05:11:04;;;;;;;13.70;12.05;;;;;;;11.71;100.00;96238.72;5129158;27;20023;-67
2023/05/30 05:13:30;;;;;;;12.75;11.65;;;;;;;11.82;100.00;96240.41;5117428;28;20212;-68
2023/05/30 05:15:55;;;;;;;12.55;11.27;;;;;;;11.93;100.00;96237.66;5117112;27;20016;-68
2023/05/30 05:18:21;;;;;;;13.00;11.57;;;;;;;12.03;100.00;96246.44;5111981;28;20083;-68
2023/05/30 05:20:47;;;;;;;13.98;12.38;;;;;;;12.13;100.00;96240.34;5121858;27;20019;-68
2023/05/30 05:23:13;;;;;;;16.45;11.90;;;;;;;12.20;100.00;96243.28;5100515;27;20016;-68
2023/05/30 05:25:38;;;;;;;14.63;11.48;;;;;;;12.28;100.00;96240.78;5119724;27;20376;-68
2023/05/30 05:28:04;;;;;;;14.00;10.65;;;;;;;12.39;100.00;96248.56;5119559;27;20034;-68
2023/05/30 05:30:30;;;;;;;11.20;10.20;;;;;;;12.53;100.00;96244.66;5115461;27;20031;-68
2023/05/30 05:32:55;;;;;;;15.00;10.40;;;;;;;12.59;100.00;96233.53;5116350;27;20424;-69
2023/05/30 05:35:20;;;;;;;11.38;10.05;;;;;;;12.64;100.00;96235.75;5115661;27;20023;-68
2023/05/30 05:37:47;;;;;;;15.02;12.85;;;;;;;12.73;100.00;96229.59;5123691;27;20035;-68
2023/05/30 05:40:13;;;;;;;10.77;9.57;;;;;;;12.84;100.00;96235.72;5121502;27;20019;-68
2023/05/30 05:42:38;;;;;;;10.32;9.38;;;;;;;12.96;100.00;96231.09;5132664;27;20030;-69
2023/05/30 05:45:04;;;;;;;11.07;9.48;;;;;;;13.08;100.00;96231.75;5129430;27;20026;-68
2023/05/30 05:47:30;;;;;;;11.52;8.55;;;;;;;13.20;100.00;96229.75;5129379;27;20407;-68
2023/05/30 05:49:55;;;;;;;9.75;8.60;;;;;;;13.31;100.00;96225.13;5125318;27;20031;-68
2023/05/30 05:52:21;;;;;;;16.40;11.00;;;;;;;13.46;100.00;96222.84;5101794;27;20024;-68
2023/05/30 05:54:46;;;;;;;16.67;11.48;;;;;;;13.58;100.00;96220.00;5125906;27;20023;-67
2023/05/30 05:57:12;;;;;;;20.80;13.18;;;;;;;13.71;100.00;96220.47;5116078;27;20089;-69
2023/05/30 05:59:37;;;;;;;19.42;16.85;;;;;;;13.93;100.00;96226.34;5128869;27;20065;-68
2023/05/30 06:02:03;;;;;;;19.85;17.95;;;;;;;14.14;100.00;96228.69;5113664;27;20019;-69
2023/05/30 06:04:28;;;;;;;18.05;16.05;;;;;;;14.14;100.00;96223.38;5115409;27;20039;-71
2023/05/30 06:06:54;;;;;;;18.60;16.77;;;;;;;14.14;100.00;96223.38;5125242;27;20051;-72
2023/05/30 06:09:19;;;;;;;23.90;18.83;;;;;;;14.18;100.00;96226.56;5118835;27;20027;-67
2023/05/30 06:11:45;;;;;;;13.55;12.27;;;;;;;14.22;100.00;96227.91;5116728;27;20559;-72
2023/05/30 06:14:11;;;;;;;12.85;11.52;;;;;;;14.29;100.00;96223.69;5098442;28;20502;-72
2023/05/30 06:16:36;;;;;;;12.93;11.23;;;;;;;14.43;100.00;96217.03;5097621;28;20616;-71
2023/05/30 06:19:02;;;;;;;13.50;12.32;;;;;;;14.53;100.00;96216.94;5122451;27;20098;-70
2023/05/30 06:21:27;;;;;;;18.08;16.38;;;;;;;14.66;100.00;96213.03;5116818;27;20487;-69
2023/05/30 06:23:52;;;;;;;18.13;16.27;;;;;;;14.89;100.00;96214.22;5120459;27;20028;-69
2023/05/30 06:26:18;;;;;;;18.13;16.45;;;;;;;15.06;100.00;96218.81;5123209;27;20037;-69
2023/05/30 06:28:48;;;;;;;20.17;18.30;;;;;;;15.29;100.00;96219.09;5114783;27;20045;-69
2023/05/30 06:31:13;;;;;;;23.48;21.38;;;;;;;15.37;100.00;96211.19;5121381;27;20027;-69
2023/05/30 06:33:38;;;;;;;19.85;15.80;;;;;;;15.73;100.00;96207.50;5119539;27;20055;-68
2023/05/30 06:36:06;;;;;;;14.57;13.13;;;;;;;15.82;100.00;96205.69;5088507;27;20024;-69
2023/05/30 06:38:31;;;;;;;12.57;9.75;;;;;;;16.02;100.00;96191.13;5125330;27;20650;-69
2023/05/30 06:40:57;;;;;;;14.95;10.98;;;;;;;16.23;100.00;96186.34;5127196;27;20088;-69
2023/05/30 06:43:22;;;;;;;9.60;8.80;;;;;;;16.45;100.00;96182.19;5120631;27;20071;-69
2023/05/30 06:45:48;;;;;;;8.77;7.75;;;;;;;16.74;100.00;96176.34;5121034;27;20054;-69
2023/05/30 06:48:13;;;;;;;7.82;7.07;;;;;;;16.84;100.00;96183.31;5114527;27;20015;-69
2023/05/30 06:50:39;;;;;;;7.43;6.80;;;;;;;17.12;100.00;96173.13;5118055;27;20030;-69
2023/05/30 06:53:04;;;;;;;8.07;6.80;;;;;;;17.38;100.00;96172.06;5126133;27;20024;-69
2023/05/30 06:55:30;;;;;;;8.07;6.93;;;;;;;17.62;100.00;96172.94;5124502;27;20019;-69
2023/05/30 06:57:55;;;;;;;8.20;6.85;;;;;;;17.70;100.00;96154.25;5118013;27;20019;-69
2023/05/30 07:00:22;;;;;;;7.47;6.30;;;;;;;17.99;100.00;96147.38;5119353;27;20027;-69
2023/05/30 07:02:47;;;;;;;6.70;5.78;;;;;;;18.13;100.00;96137.00;5118760;27;20030;-69
2023/05/30 07:05:12;;;;;;;7.65;6.80;;;;;;;18.48;100.00;96142.72;5125192;28;20106;-69
2023/05/30 07:07:39;;;;;;;6.93;6.22;;;;;;;18.59;100.00;96133.47;5138781;27;20387;-69
2023/05/30 07:10:06;;;;;;;9.00;5.93;;;;;;;18.30;100.00;96109.22;5131982;28;20034;-70
2023/05/30 07:12:32;;;;;;;7.72;6.90;;;;;;;18.51;100.00;96106.84;5118239;27;20037;-69
2023/05/30 07:14:58;;;;;;;7.70;6.80;;;;;;;18.84;100.00;96107.34;5122713;27;20043;-69
2023/05/30 07:17:23;;;;;;;7.07;6.18;;;;;;;19.31;100.00;96108.00;5122497;28;20032;-69
2023/05/30 07:19:49;;;;;;;7.28;6.28;;;;;;;19.41;100.00;96080.16;5114706;27;20019;-70
2023/05/30 07:22:14;;;;;;;6.88;6.13;;;;;;;19.67;100.00;96068.94;5117905;28;20016;-69
2023/05/30 07:24:40;;;;;;;7.72;5.72;;;;;;;20.12;100.00;96042.06;5116036;28;20038;-69
2023/05/30 07:27:06;;;;;;;6.35;5.85;;;;;;;20.16;100.00;96037.97;5116232;28;20035;-70
2023/05/30 07:29:31;;;;;;;6.50;5.88;;;;;;;20.28;100.00;96035.59;5123118;27;20026;-69
2023/05/30 07:31:56;;;;;;;8.65;6.30;;;;;;;20.62;100.00;96022.41;5124177;27;20016;-69
2023/05/30 07:34:22;;;;;;;8.93;5.97;;;;;;;20.98;100.00;96023.25;5119887;28;20088;-69
2023/05/30 07:36:47;;;;;;;6.57;6.00;;;;;;;20.96;100.00;96009.22;5104634;27;20022;-69
2023/05/30 07:39:13;;;;;;;5.78;5.38;;;;;;;21.04;100.00;95984.97;5122934;28;20033;-70
2023/05/30 07:41:38;;;;;;;6.28;5.75;;;;;;;21.34;100.00;95987.31;5119406;28;20023;-70
2023/05/30 07:44:03;;;;;;;9.57;6.40;;;;;;;21.45;100.00;95984.03;5120303;27;20049;-69
2023/05/30 07:46:29;;;;;;;6.45;5.95;;;;;;;21.44;100.00;95971.69;5116750;27;20044;-70
2023/05/30 07:48:54;;;;;;;6.35;5.75;;;;;;;21.24;100.00;95968.97;5113736;28;20033;-70
2023/05/30 07:51:22;;;;;;;7.32;6.28;;;;;;;21.34;100.00;95973.94;5118693;28;20083;-70
2023/05/30 07:53:47;;;;;;;6.07;5.55;;;;;;;21.45;100.00;95977.88;5124183;27;20057;-70
2023/05/30 07:56:13;;;;;;;6.13;5.47;;;;;;;21.16;100.00;95982.53;5119222;28;20023;-70
2023/05/30 07:58:38;;;;;;;6.13;5.53;;;;;;;20.84;100.00;95984.91;5116312;28;20470;-70
2023/05/30 08:01:05;;;;;;;6.60;6.00;;;;;;;21.31;100.00;95980.50;5115061;28;20031;-70
2023/05/30 08:03:30;;;;;;;7.47;6.55;;;;;;;21.53;100.00;95964.28;5115135;28;20035;-70
2023/05/30 08:05:56;;;;;;;9.27;6.15;;;;;;;22.16;100.00;95962.22;5119337;28;20027;-70
2023/05/30 08:08:21;;;;;;;6.97;6.28;;;;;;;22.35;100.00;95951.66;5129389;27;20173;-69
2023/05/30 08:10:47;;;;;;;6.60;6.00;;;;;;;22.46;100.00;95945.66;5125408;27;20027;-70
2023/05/30 08:13:15;;;;;;;6.85;6.15;;;;;;;22.43;100.00;95938.84;5113899;28;20035;-70
2023/05/30 08:15:41;;;;;;;7.32;6.63;;;;;;;22.55;100.00;95939.03;5126233;28;20023;-70
2023/05/30 08:18:08;;;;;;;6.60;6.05;;;;;;;22.52;100.00;95947.53;5116027;27;20031;-70
2023/05/30 08:20:35;;;;;;;6.30;5.70;;;;;;;22.58;100.00;95952.03;5119464;27;20040;-70
2023/05/30 08:23:01;;;;;;;9.65;6.32;;;;;;;23.13;100.00;95931.97;5116988;27;20019;-70
2023/05/30 08:25:32;;;;;;;7.13;6.43;;;;;;;22.89;100.00;95947.81;5116680;27;20666;-70
2023/05/30 08:27:59;;;;;;;6.57;5.97;;;;;;;23.04;100.00;95938.63;5127754;27;20106;-70
2023/05/30 08:30:24;;;;;;;6.82;6.00;;;;;;;23.17;100.00;95948.47;5129870;27;20030;-70
2023/05/30 08:32:50;;;;;;;9.48;5.82;;;;;;;23.42;100.00;95953.91;5124943;27;20027;-70
2023/05/30 08:35:15;;;;;;;6.35;5.75;;;;;;;23.52;100.00;95941.84;5115659;27;20016;-70
2023/05/30 08:37:41;;;;;;;7.10;6.40;;;;;;;23.43;100.00;95941.28;5125928;27;20643;-70
2023/05/30 08:40:10;;;;;;;18.77;9.77;;;;;;;23.07;100.00;95910.53;5129367;27;20118;-70
2023/05/30 08:42:37;;;;;;;7.32;5.85;;;;;;;23.02;100.00;95917.38;5131368;27;20395;-70
2023/05/30 08:45:04;;;;;;;6.70;6.00;;;;;;;23.13;100.00;95912.34;5127435;27;20209;-70
2023/05/30 08:47:30;;;;;;;7.72;6.20;;;;;;;23.56;100.00;95894.72;5121338;27;20139;-70
2023/05/30 08:49:57;;;;;;;6.95;5.97;;;;;;;23.66;100.00;95910.34;5114811;27;20115;-70
2023/05/30 08:52:27;;;;;;;10.07;6.63;;;;;;;23.41;100.00;95898.56;5129564;27;20034;-70
2023/05/30 08:55:01;;;;;;;8.48;6.53;;;;;;;23.91;100.00;95902.25;5131649;27;20062;-70
2023/05/30 08:57:34;;;;;;;6.63;6.00;;;;;;;24.01;100.00;95883.81;5127782;27;20034;-70
2023/05/30 09:00:03;;;;;;;6.00;5.22;;;;;;;23.29;100.00;95892.22;5121218;27;20030;-70
2023/05/30 09:02:29;;;;;;;6.95;5.55;;;;;;;23.02;100.00;95895.06;5118331;27;20076;-70
2023/05/30 09:04:57;;;;;;;5.97;5.47;;;;;;;23.38;100.00;95899.00;5117926;27;20031;-70
2023/05/30 09:07:24;;;;;;;7.03;6.10;;;;;;;23.67;100.00;95906.63;5131695;27;20044;-70
2023/05/30 09:09:51;;;;;;;6.97;6.20;;;;;;;24.09;100.00;95898.00;5101882;27;20042;-70
2023/05/30 09:12:17;;;;;;;8.07;5.93;;;;;;;24.34;100.00;95910.53;5118625;27;20058;-70
2023/05/30 09:14:42;;;;;;;7.28;6.57;;;;;;;24.59;100.00;95873.59;5119178;27;20502;-70
2023/05/30 09:17:09;;;;;;;6.75;6.10;;;;;;;24.58;100.00;95868.47;5123437;27;20182;-71
2023/05/30 09:19:38;;;;;;;6.50;5.90;;;;;;;23.85;100.00;95871.69;5121327;27;20031;-71
2023/05/30 09:22:05;;;;;;;7.85;6.60;;;;;;;24.43;100.00;95876.94;5117814;27;20044;-71
2023/05/30 09:25:08;;;;;;;7.25;6.18;;;;;;;24.59;100.00;95852.06;5114247;27;20389;-70
2023/05/30 09:27:37;;;;;;;6.82;5.53;;;;;;;24.29;100.00;95855.56;5120968;27;20031;-71
2023/05/30 09:30:08;;;;;;;6.60;6.03;;;;;;;24.94;100.00;95839.81;5128240;27;20024;-70
2023/05/30 09:32:36;;;;;;;6.60;5.90;;;;;;;25.05;100.00;95857.06;5119492;27;20020;-70
2023/05/30 09:35:09;;;;;;;6.32;5.72;;;;;;;25.21;100.00;95849.38;5130433;27;20023;-70
2023/05/30 09:37:43;;;;;;;7.18;6.28;;;;;;;25.59;100.00;95832.00;5127325;27;20041;-68
2023/05/30 09:40:15;;;;;;;7.20;6.50;;;;;;;26.17;100.00;95816.03;5129437;27;20102;-68
2023/05/30 09:42:52;;;;;;;6.60;6.00;;;;;;;25.79;100.00;95818.16;5127083;27;20019;-68
2023/05/30 09:45:24;;;;;;;5.93;5.45;;;;;;;25.58;100.00;95819.59;5122787;27;20073;-68
2023/05/30 09:47:51;;;;;;;6.28;5.05;;;;;;;25.23;100.00;95831.13;5124169;27;20114;-68
2023/05/30 09:50:22;;;;;;;6.07;5.57;;;;;;;25.05;100.00;95840.09;5115120;27;20034;-68
2023/05/30 09:52:51;;;;;;;9.07;5.65;;;;;;;25.88;100.00;95829.41;5123762;27;20038;-70
2023/05/30 09:55:17;;;;;;;6.15;5.10;;;;;;;26.00;100.00;95826.69;5116334;27;20186;-70
2023/05/30 09:57:49;;;;;;;6.70;5.88;;;;;;;26.53;100.00;95811.34;5130343;27;20515;-68
2023/05/30 10:00:21;;;;;;;6.70;6.10;;;;;;;26.48;100.00;95823.91;5125822;27;20084;-68
2023/05/30 10:02:54;;;;;;;6.13;5.60;;;;;;;26.57;100.00;95822.50;5125001;27;20016;-70
2023/05/30 10:05:21;;;;;;;7.13;5.97;;;;;;;26.94;100.00;95814.00;5124054;27;20038;-70
2023/05/30 10:07:48;;;;;;;10.32;6.57;;;;;;;27.21;100.00;95799.88;5124535;27;20031;-68
2023/05/30 10:10:15;;;;;;;6.10;5.50;;;;;;;26.96;100.00;95814.56;5120396;27;20133;-67
2023/05/30 10:12:54;;;;;;;6.72;5.70;;;;;;;26.76;100.00;95820.41;5120271;27;20032;-64
2023/05/30 10:15:22;;;;;;;7.78;5.68;;;;;;;27.17;100.00;95810.34;5118491;27;20535;-65
2023/05/30 10:17:55;;;;;;;5.88;5.38;;;;;;;26.85;100.00;95813.56;5124270;27;20024;-66
2023/05/30 10:20:25;;;;;;;6.32;5.72;;;;;;;27.03;100.00;95804.44;5122730;27;20477;-66
2023/05/30 10:22:55;;;;;;;5.47;4.97;;;;;;;26.53;100.00;95795.16;5106953;27;20038;-67
2023/05/30 10:25:21;;;;;;;6.30;5.70;;;;;;;26.77;100.00;95802.34;5117629;27;20081;-66
2023/05/30 10:27:57;;;;;;;6.45;5.80;;;;;;;26.19;100.00;95818.50;5122993;27;20045;-66
2023/05/30 10:30:25;;;;;;;7.82;6.07;;;;;;;27.01;100.00;95797.63;5123246;27;20059;-66
2023/05/30 10:32:57;;;;;;;6.10;5.50;;;;;;;27.03;100.00;95799.03;5125644;27;20023;-66
2023/05/30 10:35:23;;;;;;;5.97;5.38;;;;;;;26.12;100.00;95816.72;5116021;27;20031;-66
2023/05/30 10:37:49;;;;;;;5.70;5.20;;;;;;;26.19;100.00;95802.31;5126633;27;20038;-65
2023/05/30 10:40:33;;;;;;;5.60;5.15;;;;;;;27.08;100.00;95792.09;5122037;27;20031;-66
2023/05/30 10:43:08;;;;;;;6.22;5.60;;;;;;;25.95;100.00;95800.44;5115063;28;20119;-65
2023/05/30 10:45:57;;;;;;;5.70;5.10;;;;;;;25.18;100.00;95808.41;5118713;27;20031;-65
2023/05/30 10:48:41;;;;;;;7.20;5.93;;;;;;;26.63;100.00;95804.50;5137086;27;20031;-65
2023/05/30 10:51:07;;;;;;;5.93;5.43;;;;;;;26.74;100.00;95800.94;5121539;27;20022;-66
2023/05/30 10:53:46;;;;;;;5.95;5.45;;;;;;;26.51;100.00;95789.19;5114596;27;20281;-65
2023/05/30 10:56:41;;;;;;;6.00;5.40;;;;;;;26.09;100.00;95808.28;5119352;27;20050;-65
2023/05/30 10:59:18;;;;;;;6.20;5.70;;;;;;;27.12;100.00;95788.66;5115416;27;20024;-65
2023/05/30 11:02:04;;;;;;;6.00;5.40;;;;;;;26.83;100.00;95788.66;5114826;28;20023;-65
2023/05/30 11:04:34;;;;;;;6.95;5.43;;;;;;;27.08;100.00;95790.22;5111629;28;20011;-65
2023/05/30 11:07:05;;;;;;;5.90;5.40;;;;;;;27.37;100.00;95787.44;5117801;28;20027;-65
2023/05/30 11:09:30;;;;;;;6.88;5.13;;;;;;;27.79;100.00;95777.22;5114496;28;20476;-66
2023/05/30 11:11:58;;;;;;;9.38;5.60;;;;;;;27.29;100.00;95767.03;5115477;28;20112;-66
2023/05/30 11:14:32;;;;;;;7.97;5.70;;;;;;;26.70;100.00;95791.69;5114838;28;20032;-65
2023/05/30 11:17:03;;;;;;;6.75;6.15;;;;;;;26.51;100.00;95796.44;5114447;28;20028;-65
2023/05/30 11:19:37;;;;;;;5.65;5.15;;;;;;;27.58;100.00;95776.94;5113551;28;20053;-68
2023/05/30 11:22:13;;;;;;;6.60;5.70;;;;;;;27.71;100.00;95786.59;5130592;28;20087;-65